sensor_id;sensor_type;location;lat;lon;timestamp;P1;durP1;ratioP1;P2;durP2;ratioP2
7563;SDS011;3823;53.586;10.040;2023-07-24T04:02:47;5.90;;;4.45;;
7563;SDS011;3823;53.586;10.040;2023-07-24T04:05:13;4.78;;;4.38;;
7563;SDS011;3823;53.586;10.040;2023-07-24T04:07:38;6.72;;;5.40;;
7563;SDS011;3823;53.586;10.040;2023-07-24T04:10:04;6.88;;;4.55;;
7563;SDS011;3823;53.586;10.040;2023-07-24T04:12:30;5.55;;;4.95;;
7563;SDS011;3823;53.586;10.040;2023-07-24T04:14:55;6.43;;;5.65;;
7563;SDS011;3823;53.586;10.040;2023-07-24T04:17:21;8.35;;;4.60;;
7563;SDS011;3823;53.586;10.040;2023-07-24T04:19:47;8.82;;;5.20;;
7563;SDS011;3823;53.586;10.040;2023-07-24T04:22:12;5.70;;;5.20;;
7563;SDS011;3823;53.586;10.040;2023-07-24T04:24:38;5.22;;;4.72;;
7563;SDS011;3823;53.586;10.040;2023-07-24T04:27:03;5.85;;;5.35;;
7563;SDS011;3823;53.586;10.040;2023-07-24T04:29:29;6.15;;;5.55;;
7563;SDS011;3823;53.586;10.040;2023-07-24T04:31:55;5.53;;;5.03;;
7563;SDS011;3823;53.586;10.040;2023-07-24T04:34:20;7.70;;;5.50;;
7563;SDS011;3823;53.586;10.040;2023-07-24T04:36:46;5.18;;;4.78;;
7563;SDS011;3823;53.586;10.040;2023-07-24T04:39:11;7.00;;;5.75;;
7563;SDS011;3823;53.586;10.040;2023-07-24T04:41:37;7.28;;;5.63;;
7563;SDS011;3823;53.586;10.040;2023-07-24T04:44:02;5.43;;;4.90;;
7563;SDS011;3823;53.586;10.040;2023-07-24T04:46:28;5.50;;;5.00;;
7563;SDS011;3823;53.586;10.040;2023-07-24T04:48:53;5.05;;;4.65;;
7563;SDS011;3823;53.586;10.040;2023-07-24T04:51:19;5.97;;;5.47;;
7563;SDS011;3823;53.586;10.040;2023-07-24T04:53:44;7.15;;;5.03;;
7563;SDS011;3823;53.586;10.040;2023-07-24T04:56:10;6.93;;;5.03;;
7563;SDS011;3823;53.586;10.040;2023-07-24T04:58:36;5.80;;;5.30;;
7563;SDS011;3823;53.586;10.040;2023-07-24T05:01:02;12.23;;;5.95;;
7563;SDS011;3823;53.586;10.040;2023-07-24T05:03:28;8.32;;;5.50;;
7563;SDS011;3823;53.586;10.040;2023-07-24T05:05:54;7.18;;;5.18;;
7563;SDS011;3823;53.586;10.040;2023-07-24T05:08:21;7.53;;;6.00;;
7563;SDS011;3823;53.586;10.040;2023-07-24T05:10:47;6.72;;;5.78;;
7563;SDS011;3823;53.586;10.040;2023-07-24T05:13:12;7.50;;;5.43;;
7563;SDS011;3823;53.586;10.040;2023-07-24T05:15:38;5.60;;;5.03;;
7563;SDS011;3823;53.586;10.040;2023-07-24T05:18:03;6.97;;;6.38;;
7563;SDS011;3823;53.586;10.040;2023-07-24T05:20:29;7.00;;;6.28;;
7563;SDS011;3823;53.586;10.040;2023-07-24T05:22:54;5.20;;;4.70;;
7563;SDS011;3823;53.586;10.040;2023-07-24T05:25:20;6.47;;;5.82;;
7563;SDS011;3823;53.586;10.040;2023-07-24T05:27:46;5.35;;;4.85;;
7563;SDS011;3823;53.586;10.040;2023-07-24T05:30:11;6.32;;;5.72;;
7563;SDS011;3823;53.586;10.040;2023-07-24T05:32:37;6.22;;;4.47;;
7563;SDS011;3823;53.586;10.040;2023-07-24T05:35:02;6.30;;;5.68;;
7563;SDS011;3823;53.586;10.040;2023-07-24T05:37:28;12.20;;;6.20;;
7563;SDS011;3823;53.586;10.040;2023-07-24T05:39:53;5.32;;;4.65;;
7563;SDS011;3823;53.586;10.040;2023-07-24T05:42:19;6.22;;;4.97;;
7563;SDS011;3823;53.586;10.040;2023-07-24T05:44:45;7.32;;;5.78;;
7563;SDS011;3823;53.586;10.040;2023-07-24T05:47:10;5.40;;;4.90;;
7563;SDS011;3823;53.586;10.040;2023-07-24T05:49:36;6.15;;;5.55;;
7563;SDS011;3823;53.586;10.040;2023-07-24T05:52:01;6.00;;;5.40;;
7563;SDS011;3823;53.586;10.040;2023-07-24T05:54:27;6.60;;;5.38;;
7563;SDS011;3823;53.586;10.040;2023-07-24T05:56:52;10.02;;;5.40;;
7563;SDS011;3823;53.586;10.040;2023-07-24T05:59:18;5.72;;;5.22;;
7563;SDS011;3823;53.586;10.040;2023-07-24T06:01:43;5.65;;;5.00;;
7563;SDS011;3823;53.586;10.040;2023-07-24T06:04:09;6.00;;;5.00;;
7563;SDS011;3823;53.586;10.040;2023-07-24T06:06:34;5.82;;;5.25;;
7563;SDS011;3823;53.586;10.040;2023-07-24T06:09:01;5.95;;;4.72;;
7563;SDS011;3823;53.586;10.040;2023-07-24T06:11:28;6.57;;;5.97;;
7563;SDS011;3823;53.586;10.040;2023-07-24T06:13:53;6.13;;;5.57;;
7563;SDS011;3823;53.586;10.040;2023-07-24T06:16:19;6.90;;;5.68;;
7563;SDS011;3823;53.586;10.040;2023-07-24T06:18:44;8.35;;;5.53;;
7563;SDS011;3823;53.586;10.040;2023-07-24T06:21:10;5.55;;;5.15;;
7563;SDS011;3823;53.586;10.040;2023-07-24T06:23:35;5.97;;;5.38;;
7563;SDS011;3823;53.586;10.040;2023-07-24T06:26:01;6.00;;;4.60;;
7563;SDS011;3823;53.586;10.040;2023-07-24T06:28:27;5.63;;;5.18;;
7563;SDS011;3823;53.586;10.040;2023-07-24T06:30:53;6.15;;;5.05;;
7563;SDS011;3823;53.586;10.040;2023-07-24T06:33:19;6.43;;;5.90;;
7563;SDS011;3823;53.586;10.040;2023-07-24T06:35:46;8.50;;;6.13;;
7563;SDS011;3823;53.586;10.040;2023-07-24T06:38:15;6.78;;;6.18;;
7563;SDS011;3823;53.586;10.040;2023-07-24T06:40:40;5.90;;;5.40;;
7563;SDS011;3823;53.586;10.040;2023-07-24T06:43:06;6.00;;;5.47;;
7563;SDS011;3823;53.586;10.040;2023-07-24T06:45:31;6.20;;;5.47;;
7563;SDS011;3823;53.586;10.040;2023-07-24T06:47:57;5.15;;;4.75;;
7563;SDS011;3823;53.586;10.040;2023-07-24T06:50:22;6.07;;;5.57;;
7563;SDS011;3823;53.586;10.040;2023-07-24T06:52:48;6.30;;;5.43;;
7563;SDS011;3823;53.586;10.040;2023-07-24T06:55:15;5.47;;;4.95;;
7563;SDS011;3823;53.586;10.040;2023-07-24T06:57:41;6.47;;;5.97;;
7563;SDS011;3823;53.586;10.040;2023-07-24T07:00:07;7.53;;;5.82;;
7563;SDS011;3823;53.586;10.040;2023-07-24T07:02:36;6.20;;;5.63;;
7563;SDS011;3823;53.586;10.040;2023-07-24T07:05:02;5.07;;;4.68;;
7563;SDS011;3823;53.586;10.040;2023-07-24T07:07:28;7.20;;;6.47;;
7563;SDS011;3823;53.586;10.040;2023-07-24T07:09:53;7.15;;;6.30;;
7563;SDS011;3823;53.586;10.040;2023-07-24T07:12:19;7.70;;;6.43;;
7563;SDS011;3823;53.586;10.040;2023-07-24T07:14:44;7.07;;;6.40;;
7563;SDS011;3823;53.586;10.040;2023-07-24T07:17:10;6.45;;;5.95;;
7563;SDS011;3823;53.586;10.040;2023-07-24T07:19:35;7.18;;;6.47;;
7563;SDS011;3823;53.586;10.040;2023-07-24T07:22:01;7.10;;;6.50;;
7563;SDS011;3823;53.586;10.040;2023-07-24T07:24:26;7.40;;;6.80;;
7563;SDS011;3823;53.586;10.040;2023-07-24T07:26:52;6.75;;;6.15;;
7563;SDS011;3823;53.586;10.040;2023-07-24T07:29:17;6.40;;;5.90;;
7563;SDS011;3823;53.586;10.040;2023-07-24T07:31:43;6.25;;;5.60;;
7563;SDS011;3823;53.586;10.040;2023-07-24T07:34:08;8.00;;;6.70;;
7563;SDS011;3823;53.586;10.040;2023-07-24T07:36:34;6.05;;;5.45;;
7563;SDS011;3823;53.586;10.040;2023-07-24T07:38:59;6.40;;;5.63;;
7563;SDS011;3823;53.586;10.040;2023-07-24T07:41:25;6.00;;;5.50;;
7563;SDS011;3823;53.586;10.040;2023-07-24T07:43:51;5.55;;;5.05;;
7563;SDS011;3823;53.586;10.040;2023-07-24T07:46:16;9.35;;;5.13;;
7563;SDS011;3823;53.586;10.040;2023-07-24T07:48:41;5.25;;;4.75;;
7563;SDS011;3823;53.586;10.040;2023-07-24T07:51:07;6.55;;;5.95;;
7563;SDS011;3823;53.586;10.040;2023-07-24T07:53:33;6.55;;;6.05;;
7563;SDS011;3823;53.586;10.040;2023-07-24T07:55:58;5.90;;;5.40;;
7563;SDS011;3823;53.586;10.040;2023-07-24T07:58:27;6.32;;;5.75;;
7563;SDS011;3823;53.586;10.040;2023-07-24T08:00:52;5.78;;;5.28;;
7563;SDS011;3823;53.586;10.040;2023-07-24T08:03:18;7.63;;;6.93;;
7563;SDS011;3823;53.586;10.040;2023-07-24T08:05:43;7.15;;;6.55;;
7563;SDS011;3823;53.586;10.040;2023-07-24T08:08:09;6.70;;;6.15;;
7563;SDS011;3823;53.586;10.040;2023-07-24T08:10:37;5.95;;;5.45;;
7563;SDS011;3823;53.586;10.040;2023-07-24T08:13:03;6.13;;;5.55;;
7563;SDS011;3823;53.586;10.040;2023-07-24T08:15:28;6.00;;;5.50;;
7563;SDS011;3823;53.586;10.040;2023-07-24T08:17:54;10.48;;;5.95;;
7563;SDS011;3823;53.586;10.040;2023-07-24T08:20:19;7.57;;;6.45;;
7563;SDS011;3823;53.586;10.040;2023-07-24T08:22:45;6.22;;;5.72;;
7563;SDS011;3823;53.586;10.040;2023-07-24T08:25:11;6.65;;;6.05;;
7563;SDS011;3823;53.586;10.040;2023-07-24T08:27:37;7.10;;;6.40;;
7563;SDS011;3823;53.586;10.040;2023-07-24T08:30:02;7.35;;;6.15;;
7563;SDS011;3823;53.586;10.040;2023-07-24T08:32:28;8.02;;;7.32;;
7563;SDS011;3823;53.586;10.040;2023-07-24T08:34:53;7.28;;;6.68;;
7563;SDS011;3823;53.586;10.040;2023-07-24T08:37:19;7.63;;;6.93;;
7563;SDS011;3823;53.586;10.040;2023-07-24T08:39:44;6.85;;;6.25;;
7563;SDS011;3823;53.586;10.040;2023-07-24T08:42:10;7.15;;;6.55;;
7563;SDS011;3823;53.586;10.040;2023-07-24T08:44:37;7.05;;;6.38;;
7563;SDS011;3823;53.586;10.040;2023-07-24T08:47:03;7.32;;;6.63;;
7563;SDS011;3823;53.586;10.040;2023-07-24T08:49:29;7.68;;;6.97;;
7563;SDS011;3823;53.586;10.040;2023-07-24T08:51:55;7.40;;;6.88;;
7563;SDS011;3823;53.586;10.040;2023-07-24T08:54:21;7.35;;;6.65;;
7563;SDS011;3823;53.586;10.040;2023-07-24T08:56:49;8.30;;;7.50;;
7563;SDS011;3823;53.586;10.040;2023-07-24T08:59:16;7.60;;;7.00;;
7563;SDS011;3823;53.586;10.040;2023-07-24T09:01:42;7.30;;;6.60;;
7563;SDS011;3823;53.586;10.040;2023-07-24T09:04:08;8.30;;;7.50;;
7563;SDS011;3823;53.586;10.040;2023-07-24T09:06:33;7.88;;;7.18;;
7563;SDS011;3823;53.586;10.040;2023-07-24T09:08:59;8.13;;;7.35;;
7563;SDS011;3823;53.586;10.040;2023-07-24T09:11:26;8.07;;;7.38;;
7563;SDS011;3823;53.586;10.040;2023-07-24T09:13:51;8.85;;;7.97;;
7563;SDS011;3823;53.586;10.040;2023-07-24T09:16:24;7.40;;;6.80;;
7563;SDS011;3823;53.586;10.040;2023-07-24T09:18:50;8.40;;;7.70;;
7563;SDS011;3823;53.586;10.040;2023-07-24T09:21:26;7.63;;;7.03;;
7563;SDS011;3823;53.586;10.040;2023-07-24T09:23:53;7.43;;;6.82;;
7563;SDS011;3823;53.586;10.040;2023-07-24T09:26:19;7.25;;;6.63;;
7563;SDS011;3823;53.586;10.040;2023-07-24T09:28:51;8.15;;;7.35;;
7563;SDS011;3823;53.586;10.040;2023-07-24T09:31:18;7.38;;;6.68;;
7563;SDS011;3823;53.586;10.040;2023-07-24T09:33:43;8.25;;;7.55;;
7563;SDS011;3823;53.586;10.040;2023-07-24T09:36:10;7.45;;;6.85;;
7563;SDS011;3823;53.586;10.040;2023-07-24T09:38:36;7.72;;;6.93;;
7563;SDS011;3823;53.586;10.040;2023-07-24T09:41:03;8.15;;;7.45;;
7563;SDS011;3823;53.586;10.040;2023-07-24T09:43:29;8.10;;;7.30;;
7563;SDS011;3823;53.586;10.040;2023-07-24T09:45:55;8.98;;;7.78;;
7563;SDS011;3823;53.586;10.040;2023-07-24T09:48:22;8.60;;;6.97;;
7563;SDS011;3823;53.586;10.040;2023-07-24T09:50:52;8.30;;;7.50;;
7563;SDS011;3823;53.586;10.040;2023-07-24T09:53:26;7.63;;;6.93;;
7563;SDS011;3823;53.586;10.040;2023-07-24T09:58:22;7.20;;;6.53;;
7563;SDS011;3823;53.586;10.040;2023-07-24T10:00:49;6.20;;;5.72;;
7563;SDS011;3823;53.586;10.040;2023-07-24T10:03:15;10.48;;;5.60;;
7563;SDS011;3823;53.586;10.040;2023-07-24T10:05:43;7.10;;;6.10;;
7563;SDS011;3823;53.586;10.040;2023-07-24T10:08:14;6.95;;;6.28;;
7563;SDS011;3823;53.586;10.040;2023-07-24T10:10:41;6.90;;;6.30;;
7563;SDS011;3823;53.586;10.040;2023-07-24T10:13:07;5.93;;;5.40;;
7563;SDS011;3823;53.586;10.040;2023-07-24T10:15:36;6.63;;;6.03;;
7563;SDS011;3823;53.586;10.040;2023-07-24T10:18:03;6.38;;;5.80;;
7563;SDS011;3823;53.586;10.040;2023-07-24T10:20:34;6.35;;;5.75;;
7563;SDS011;3823;53.586;10.040;2023-07-24T10:23:06;7.32;;;6.75;;
7563;SDS011;3823;53.586;10.040;2023-07-24T10:25:34;7.75;;;6.53;;
7563;SDS011;3823;53.586;10.040;2023-07-24T10:28:05;7.05;;;6.45;;
7563;SDS011;3823;53.586;10.040;2023-07-24T10:30:41;7.93;;;6.13;;
7563;SDS011;3823;53.586;10.040;2023-07-24T10:33:11;6.97;;;6.10;;
7563;SDS011;3823;53.586;10.040;2023-07-24T10:35:45;6.32;;;5.75;;
7563;SDS011;3823;53.586;10.040;2023-07-24T10:38:13;6.47;;;5.97;;
7563;SDS011;3823;53.586;10.040;2023-07-24T10:40:40;6.13;;;5.63;;
7563;SDS011;3823;53.586;10.040;2023-07-24T10:43:07;7.82;;;6.10;;
7563;SDS011;3823;53.586;10.040;2023-07-24T10:45:48;6.95;;;6.28;;
7563;SDS011;3823;53.586;10.040;2023-07-24T10:48:18;7.00;;;6.47;;
7563;SDS011;3823;53.586;10.040;2023-07-24T10:50:50;6.97;;;5.93;;
7563;SDS011;3823;53.586;10.040;2023-07-24T10:53:18;7.43;;;6.72;;
7563;SDS011;3823;53.586;10.040;2023-07-24T10:55:45;5.85;;;5.35;;
7563;SDS011;3823;53.586;10.040;2023-07-24T10:58:15;6.47;;;5.88;;
7563;SDS011;3823;53.586;10.040;2023-07-24T11:00:44;6.35;;;5.75;;
7563;SDS011;3823;53.586;10.040;2023-07-24T11:03:11;6.05;;;5.45;;
7563;SDS011;3823;53.586;10.040;2023-07-24T11:05:42;6.20;;;5.70;;
7563;SDS011;3823;53.586;10.040;2023-07-24T11:08:12;6.55;;;5.70;;
7563;SDS011;3823;53.586;10.040;2023-07-24T11:10:44;6.32;;;5.72;;
7563;SDS011;3823;53.586;10.040;2023-07-24T11:13:11;5.50;;;5.05;;
7563;SDS011;3823;53.586;10.040;2023-07-24T11:15:36;5.68;;;5.20;;
7563;SDS011;3823;53.586;10.040;2023-07-24T11:18:02;5.18;;;4.78;;
7563;SDS011;3823;53.586;10.040;2023-07-24T11:20:28;8.23;;;5.25;;
7563;SDS011;3823;53.586;10.040;2023-07-24T11:22:57;5.88;;;5.25;;
7563;SDS011;3823;53.586;10.040;2023-07-24T11:25:23;5.63;;;5.22;;
7563;SDS011;3823;53.586;10.040;2023-07-24T11:27:49;6.45;;;4.93;;
7563;SDS011;3823;53.586;10.040;2023-07-24T11:30:19;5.38;;;4.90;;
7563;SDS011;3823;53.586;10.040;2023-07-24T11:32:45;5.28;;;4.88;;
7563;SDS011;3823;53.586;10.040;2023-07-24T11:35:11;6.40;;;5.85;;
7563;SDS011;3823;53.586;10.040;2023-07-24T11:37:37;5.65;;;5.20;;
7563;SDS011;3823;53.586;10.040;2023-07-24T11:40:03;5.10;;;4.60;;
7563;SDS011;3823;53.586;10.040;2023-07-24T11:42:33;5.60;;;5.05;;
7563;SDS011;3823;53.586;10.040;2023-07-24T11:45:02;7.10;;;5.70;;
7563;SDS011;3823;53.586;10.040;2023-07-24T11:47:28;5.13;;;4.72;;
7563;SDS011;3823;53.586;10.040;2023-07-24T11:49:57;5.70;;;5.20;;
7563;SDS011;3823;53.586;10.040;2023-07-24T11:52:36;5.75;;;5.30;;
7563;SDS011;3823;53.586;10.040;2023-07-24T11:55:04;5.20;;;4.80;;
7563;SDS011;3823;53.586;10.040;2023-07-24T11:57:29;8.27;;;5.53;;
7563;SDS011;3823;53.586;10.040;2023-07-24T11:59:55;7.55;;;5.40;;
7563;SDS011;3823;53.586;10.040;2023-07-24T12:02:23;4.93;;;4.53;;
7563;SDS011;3823;53.586;10.040;2023-07-24T12:04:54;5.25;;;4.78;;
7563;SDS011;3823;53.586;10.040;2023-07-24T12:07:22;5.63;;;5.22;;
7563;SDS011;3823;53.586;10.040;2023-07-24T12:09:53;6.90;;;5.65;;
7563;SDS011;3823;53.586;10.040;2023-07-24T12:12:18;5.13;;;4.72;;
7563;SDS011;3823;53.586;10.040;2023-07-24T12:14:44;5.70;;;5.20;;
7563;SDS011;3823;53.586;10.040;2023-07-24T12:17:09;8.48;;;5.80;;
7563;SDS011;3823;53.586;10.040;2023-07-24T12:19:39;6.68;;;5.82;;
7563;SDS011;3823;53.586;10.040;2023-07-24T12:22:04;5.78;;;5.38;;
7563;SDS011;3823;53.586;10.040;2023-07-24T12:24:30;6.10;;;5.60;;
7563;SDS011;3823;53.586;10.040;2023-07-24T12:26:55;5.28;;;4.78;;
7563;SDS011;3823;53.586;10.040;2023-07-24T12:29:21;6.20;;;5.70;;
7563;SDS011;3823;53.586;10.040;2023-07-24T12:31:46;6.45;;;5.95;;
7563;SDS011;3823;53.586;10.040;2023-07-24T12:34:12;5.93;;;5.45;;
7563;SDS011;3823;53.586;10.040;2023-07-24T12:36:37;5.80;;;5.32;;
7563;SDS011;3823;53.586;10.040;2023-07-24T12:39:03;6.53;;;6.03;;
7563;SDS011;3823;53.586;10.040;2023-07-24T12:41:28;6.55;;;5.45;;
7563;SDS011;3823;53.586;10.040;2023-07-24T12:43:54;5.30;;;4.85;;
7563;SDS011;3823;53.586;10.040;2023-07-24T12:46:19;4.93;;;4.53;;
7563;SDS011;3823;53.586;10.040;2023-07-24T12:48:45;4.82;;;4.53;;
7563;SDS011;3823;53.586;10.040;2023-07-24T12:51:10;5.22;;;4.82;;
7563;SDS011;3823;53.586;10.040;2023-07-24T12:53:36;5.40;;;4.95;;
7563;SDS011;3823;53.586;10.040;2023-07-24T12:56:01;6.85;;;6.25;;
7563;SDS011;3823;53.586;10.040;2023-07-24T12:58:27;5.32;;;5.03;;
7563;SDS011;3823;53.586;10.040;2023-07-24T13:00:52;5.78;;;5.35;;
7563;SDS011;3823;53.586;10.040;2023-07-24T13:03:18;5.90;;;5.53;;
7563;SDS011;3823;53.586;10.040;2023-07-24T13:05:44;4.93;;;4.63;;
7563;SDS011;3823;53.586;10.040;2023-07-24T13:08:10;7.35;;;5.38;;
7563;SDS011;3823;53.586;10.040;2023-07-24T13:10:35;5.13;;;4.82;;
7563;SDS011;3823;53.586;10.040;2023-07-24T13:13:01;6.95;;;6.45;;
7563;SDS011;3823;53.586;10.040;2023-07-24T13:15:27;4.95;;;4.53;;
7563;SDS011;3823;53.586;10.040;2023-07-24T13:17:54;5.25;;;4.85;;
7563;SDS011;3823;53.586;10.040;2023-07-24T13:20:20;6.10;;;5.65;;
7563;SDS011;3823;53.586;10.040;2023-07-24T13:22:45;5.57;;;5.18;;
7563;SDS011;3823;53.586;10.040;2023-07-24T13:25:12;5.18;;;4.78;;
7563;SDS011;3823;53.586;10.040;2023-07-24T13:27:37;5.20;;;4.80;;
7563;SDS011;3823;53.586;10.040;2023-07-24T13:30:03;5.50;;;5.10;;
7563;SDS011;3823;53.586;10.040;2023-07-24T13:32:29;5.55;;;5.15;;
7563;SDS011;3823;53.586;10.040;2023-07-24T13:34:55;4.80;;;4.50;;
7563;SDS011;3823;53.586;10.040;2023-07-24T13:37:21;6.78;;;4.65;;
7563;SDS011;3823;53.586;10.040;2023-07-24T13:39:49;4.75;;;4.45;;
7563;SDS011;3823;53.586;10.040;2023-07-24T13:42:15;5.45;;;4.50;;
7563;SDS011;3823;53.586;10.040;2023-07-24T13:44:41;4.30;;;3.90;;
7563;SDS011;3823;53.586;10.040;2023-07-24T13:47:06;4.43;;;4.13;;
7563;SDS011;3823;53.586;10.040;2023-07-24T13:49:32;3.53;;;3.33;;
7563;SDS011;3823;53.586;10.040;2023-07-24T13:51:57;4.13;;;3.83;;
7563;SDS011;3823;53.586;10.040;2023-07-24T13:54:23;3.92;;;3.70;;
7563;SDS011;3823;53.586;10.040;2023-07-24T13:56:48;4.43;;;4.13;;
7563;SDS011;3823;53.586;10.040;2023-07-24T13:59:14;4.95;;;4.65;;
7563;SDS011;3823;53.586;10.040;2023-07-24T14:01:39;4.20;;;3.90;;
7563;SDS011;3823;53.586;10.040;2023-07-24T14:04:05;5.60;;;5.10;;
7563;SDS011;3823;53.586;10.040;2023-07-24T14:06:30;4.45;;;4.15;;
7563;SDS011;3823;53.586;10.040;2023-07-24T14:08:56;5.13;;;4.72;;
7563;SDS011;3823;53.586;10.040;2023-07-24T14:11:22;4.57;;;4.28;;
7563;SDS011;3823;53.586;10.040;2023-07-24T14:13:47;4.80;;;4.40;;
7563;SDS011;3823;53.586;10.040;2023-07-24T14:16:13;5.05;;;4.57;;
7563;SDS011;3823;53.586;10.040;2023-07-24T14:18:38;4.38;;;4.07;;
7563;SDS011;3823;53.586;10.040;2023-07-24T14:21:04;4.63;;;4.22;;
7563;SDS011;3823;53.586;10.040;2023-07-24T14:23:29;5.10;;;4.70;;
7563;SDS011;3823;53.586;10.040;2023-07-24T14:25:55;4.30;;;4.00;;
7563;SDS011;3823;53.586;10.040;2023-07-24T14:28:21;4.85;;;4.38;;
7563;SDS011;3823;53.586;10.040;2023-07-24T14:30:47;5.97;;;4.65;;
7563;SDS011;3823;53.586;10.040;2023-07-24T14:33:12;4.80;;;4.50;;
7563;SDS011;3823;53.586;10.040;2023-07-24T14:35:38;4.20;;;3.85;;
7563;SDS011;3823;53.586;10.040;2023-07-24T14:38:03;5.68;;;5.18;;
7563;SDS011;3823;53.586;10.040;2023-07-24T14:40:29;4.82;;;4.43;;
7563;SDS011;3823;53.586;10.040;2023-07-24T14:42:54;5.45;;;4.93;;
7563;SDS011;3823;53.586;10.040;2023-07-24T14:45:21;4.80;;;4.50;;
7563;SDS011;3823;53.586;10.040;2023-07-24T14:47:46;4.93;;;4.53;;
7563;SDS011;3823;53.586;10.040;2023-07-24T14:50:13;4.95;;;4.60;;
7563;SDS011;3823;53.586;10.040;2023-07-24T14:52:39;6.03;;;5.53;;
7563;SDS011;3823;53.586;10.040;2023-07-24T14:55:04;5.18;;;4.80;;
7563;SDS011;3823;53.586;10.040;2023-07-24T14:57:31;5.85;;;5.43;;
7563;SDS011;3823;53.586;10.040;2023-07-24T14:59:57;5.00;;;4.60;;
7563;SDS011;3823;53.586;10.040;2023-07-24T15:02:23;5.25;;;4.85;;
7563;SDS011;3823;53.586;10.040;2023-07-24T15:04:48;4.65;;;4.25;;
7563;SDS011;3823;53.586;10.040;2023-07-24T15:07:14;5.32;;;4.82;;
7563;SDS011;3823;53.586;10.040;2023-07-24T15:09:39;5.50;;;5.10;;
7563;SDS011;3823;53.586;10.040;2023-07-24T15:12:05;6.13;;;5.72;;
7563;SDS011;3823;53.586;10.040;2023-07-24T15:14:30;6.47;;;5.97;;
7563;SDS011;3823;53.586;10.040;2023-07-24T15:16:56;6.03;;;5.53;;
7563;SDS011;3823;53.586;10.040;2023-07-24T15:19:21;5.93;;;5.32;;
7563;SDS011;3823;53.586;10.040;2023-07-24T15:21:47;7.43;;;6.13;;
7563;SDS011;3823;53.586;10.040;2023-07-24T15:24:12;5.95;;;5.45;;
7563;SDS011;3823;53.586;10.040;2023-07-24T15:26:42;7.20;;;5.50;;
7563;SDS011;3823;53.586;10.040;2023-07-24T15:29:07;6.95;;;6.25;;
7563;SDS011;3823;53.586;10.040;2023-07-24T15:31:33;6.50;;;5.90;;
7563;SDS011;3823;53.586;10.040;2023-07-24T15:34:01;7.00;;;6.40;;
7563;SDS011;3823;53.586;10.040;2023-07-24T15:36:27;4.65;;;4.25;;
7563;SDS011;3823;53.586;10.040;2023-07-24T15:38:53;5.80;;;1.67;;
7563;SDS011;3823;53.586;10.040;2023-07-24T15:41:18;1.30;;;1.10;;
7563;SDS011;3823;53.586;10.040;2023-07-24T15:43:44;2.80;;;1.60;;
7563;SDS011;3823;53.586;10.040;2023-07-24T15:46:09;2.08;;;1.77;;
7563;SDS011;3823;53.586;10.040;2023-07-24T15:48:35;2.75;;;2.53;;
7563;SDS011;3823;53.586;10.040;2023-07-24T15:51:01;12.00;;;4.78;;
7563;SDS011;3823;53.586;10.040;2023-07-24T15:53:27;7.03;;;4.85;;
7563;SDS011;3823;53.586;10.040;2023-07-24T15:55:53;3.67;;;3.38;;
7563;SDS011;3823;53.586;10.040;2023-07-24T15:58:18;7.43;;;3.40;;
7563;SDS011;3823;53.586;10.040;2023-07-24T16:00:44;5.68;;;4.05;;
7563;SDS011;3823;53.586;10.040;2023-07-24T16:03:09;4.68;;;4.28;;
7563;SDS011;3823;53.586;10.040;2023-07-24T16:05:35;3.50;;;3.20;;
7563;SDS011;3823;53.586;10.040;2023-07-24T16:08:01;3.95;;;3.58;;
7563;SDS011;3823;53.586;10.040;2023-07-24T16:10:27;4.45;;;3.47;;
7563;SDS011;3823;53.586;10.040;2023-07-24T16:12:53;4.65;;;3.88;;
7563;SDS011;3823;53.586;10.040;2023-07-24T16:15:18;3.80;;;3.50;;
7563;SDS011;3823;53.586;10.040;2023-07-24T16:17:44;3.42;;;3.15;;
7563;SDS011;3823;53.586;10.040;2023-07-24T16:20:10;7.40;;;4.03;;
7563;SDS011;3823;53.586;10.040;2023-07-24T16:22:36;8.30;;;4.40;;
7563;SDS011;3823;53.586;10.040;2023-07-24T16:25:02;6.68;;;4.03;;
7563;SDS011;3823;53.586;10.040;2023-07-24T16:27:28;6.28;;;4.38;;
7563;SDS011;3823;53.586;10.040;2023-07-24T16:29:53;8.57;;;4.70;;
7563;SDS011;3823;53.586;10.040;2023-07-24T16:32:19;8.00;;;4.65;;
7563;SDS011;3823;53.586;10.040;2023-07-24T16:34:45;4.25;;;3.85;;
7563;SDS011;3823;53.586;10.040;2023-07-24T16:37:10;6.45;;;5.25;;
7563;SDS011;3823;53.586;10.040;2023-07-24T16:39:37;5.25;;;4.75;;
7563;SDS011;3823;53.586;10.040;2023-07-24T16:42:03;6.70;;;4.88;;
7563;SDS011;3823;53.586;10.040;2023-07-24T16:44:29;5.95;;;4.75;;
7563;SDS011;3823;53.586;10.040;2023-07-24T16:46:55;7.38;;;5.05;;
7563;SDS011;3823;53.586;10.040;2023-07-24T16:49:20;4.97;;;4.57;;
7563;SDS011;3823;53.586;10.040;2023-07-24T16:51:46;4.97;;;4.50;;
7563;SDS011;3823;53.586;10.040;2023-07-24T16:54:11;5.38;;;4.07;;
7563;SDS011;3823;53.586;10.040;2023-07-24T16:56:37;5.70;;;4.30;;
7563;SDS011;3823;53.586;10.040;2023-07-24T16:59:02;3.78;;;3.47;;
7563;SDS011;3823;53.586;10.040;2023-07-24T17:01:29;5.32;;;4.32;;
7563;SDS011;3823;53.586;10.040;2023-07-24T17:03:55;6.43;;;4.68;;
7563;SDS011;3823;53.586;10.040;2023-07-24T17:06:21;4.30;;;3.85;;
7563;SDS011;3823;53.586;10.040;2023-07-24T17:08:46;6.65;;;3.78;;
7563;SDS011;3823;53.586;10.040;2023-07-24T17:11:14;4.35;;;3.90;;
7563;SDS011;3823;53.586;10.040;2023-07-24T17:13:41;3.38;;;3.08;;
7563;SDS011;3823;53.586;10.040;2023-07-24T17:16:06;4.10;;;3.80;;
7563;SDS011;3823;53.586;10.040;2023-07-24T17:18:32;2.80;;;2.60;;
7563;SDS011;3823;53.586;10.040;2023-07-24T17:20:58;3.78;;;3.47;;
7563;SDS011;3823;53.586;10.040;2023-07-24T17:23:23;4.15;;;3.85;;
7563;SDS011;3823;53.586;10.040;2023-07-24T17:25:49;5.85;;;3.33;;
7563;SDS011;3823;53.586;10.040;2023-07-24T17:28:15;4.13;;;3.83;;
7563;SDS011;3823;53.586;10.040;2023-07-24T17:30:40;3.42;;;3.13;;
7563;SDS011;3823;53.586;10.040;2023-07-24T17:33:06;3.70;;;3.40;;
7563;SDS011;3823;53.586;10.040;2023-07-24T17:35:31;2.85;;;2.65;;
7563;SDS011;3823;53.586;10.040;2023-07-24T17:38:00;3.22;;;3.03;;
7563;SDS011;3823;53.586;10.040;2023-07-24T17:40:26;3.15;;;2.85;;
7563;SDS011;3823;53.586;10.040;2023-07-24T17:42:51;3.10;;;2.90;;
7563;SDS011;3823;53.586;10.040;2023-07-24T17:45:17;3.72;;;3.30;;
7563;SDS011;3823;53.586;10.040;2023-07-24T17:47:43;4.75;;;3.15;;
7563;SDS011;3823;53.586;10.040;2023-07-24T17:50:09;3.20;;;2.90;;
7563;SDS011;3823;53.586;10.040;2023-07-24T17:52:36;5.45;;;2.95;;
7563;SDS011;3823;53.586;10.040;2023-07-24T17:55:02;5.90;;;3.90;;
7563;SDS011;3823;53.586;10.040;2023-07-24T17:57:28;4.68;;;3.83;;
7563;SDS011;3823;53.586;10.040;2023-07-24T17:59:54;4.90;;;4.30;;
7563;SDS011;3823;53.586;10.040;2023-07-24T18:02:19;4.72;;;4.20;;
7563;SDS011;3823;53.586;10.040;2023-07-24T18:04:45;5.00;;;4.53;;
7563;SDS011;3823;53.586;10.040;2023-07-24T18:07:10;7.68;;;4.63;;
7563;SDS011;3823;53.586;10.040;2023-07-24T18:09:36;5.53;;;4.13;;
7563;SDS011;3823;53.586;10.040;2023-07-24T18:12:01;4.60;;;3.97;;
7563;SDS011;3823;53.586;10.040;2023-07-24T18:14:27;8.43;;;4.95;;
7563;SDS011;3823;53.586;10.040;2023-07-24T18:16:53;4.97;;;3.95;;
7563;SDS011;3823;53.586;10.040;2023-07-24T18:19:18;5.15;;;4.00;;
7563;SDS011;3823;53.586;10.040;2023-07-24T18:21:44;4.97;;;4.43;;
7563;SDS011;3823;53.586;10.040;2023-07-24T18:24:10;8.55;;;4.13;;
7563;SDS011;3823;53.586;10.040;2023-07-24T18:26:35;5.03;;;4.53;;
7563;SDS011;3823;53.586;10.040;2023-07-24T18:29:01;5.70;;;5.15;;
7563;SDS011;3823;53.586;10.040;2023-07-24T18:31:27;5.03;;;4.53;;
7563;SDS011;3823;53.586;10.040;2023-07-24T18:33:53;4.70;;;4.30;;
7563;SDS011;3823;53.586;10.040;2023-07-24T18:36:19;4.97;;;4.57;;
7563;SDS011;3823;53.586;10.040;2023-07-24T18:38:45;4.00;;;3.70;;
7563;SDS011;3823;53.586;10.040;2023-07-24T18:41:10;5.45;;;4.68;;
7563;SDS011;3823;53.586;10.040;2023-07-24T18:43:36;5.85;;;4.68;;
7563;SDS011;3823;53.586;10.040;2023-07-24T18:46:02;6.03;;;5.07;;
7563;SDS011;3823;53.586;10.040;2023-07-24T18:48:28;5.22;;;4.63;;
7563;SDS011;3823;53.586;10.040;2023-07-24T18:50:53;6.07;;;4.28;;
7563;SDS011;3823;53.586;10.040;2023-07-24T18:53:19;6.63;;;4.82;;
7563;SDS011;3823;53.586;10.040;2023-07-24T18:55:44;4.72;;;4.32;;
7563;SDS011;3823;53.586;10.040;2023-07-24T18:58:10;4.28;;;3.88;;